< < Back
Terminal Aerodrome Forecast


Current Version              Previous Versions:   1  2  3  4  5  6  7  8  9  

Terminal Aerodrome Forecast

346
FTUS44 KMOB 180200 AAA
TAFPNS
TAF AMD
KPNS 180209Z 1802/1824 06005KT 5SM -SHRA VCTS BKN045CB OVC060
     FM180400 07014KT 4SM SHRA SCT007 OVC010
      TEMPO 1804/1808 2SM SHRA BKN007
     FM180800 05014G21KT 3SM SHRA BR OVC007
     FM181600 36008G15KT 4SM -RA OVC015
     FM181900 36010G18KT P6SM VCSH SCT015 BKN050=



Latest METAR

703
SAUS70 KWBC 180800 RRF
MTRPNS
METAR KPNS 180753Z AUTO 06008KT 6SM RA BR OVC006 16/14 A3008 RMK AO2 CIG
004V008 SLP187 P0008 T01610144


USA.gov is the U.S. government's official web portal to all federal, state and local government web resources and services.